sensor_id;sensor_type;location;lat;lon;timestamp;P1;durP1;ratioP1;P2;durP2;ratioP2
16242;SDS011;11719;51.052;6.982;2023-06-26T00:01:29;3.00;;;2.70;;
16242;SDS011;11719;51.052;6.982;2023-06-26T00:03:58;2.90;;;2.60;;
16242;SDS011;11719;51.052;6.982;2023-06-26T00:06:26;3.40;;;2.55;;
16242;SDS011;11719;51.052;6.982;2023-06-26T00:08:52;3.65;;;2.70;;
16242;SDS011;11719;51.052;6.982;2023-06-26T00:11:19;2.63;;;1.93;;
16242;SDS011;11719;51.052;6.982;2023-06-26T00:13:46;2.75;;;2.10;;
16242;SDS011;11719;51.052;6.982;2023-06-26T00:16:13;2.70;;;2.17;;
16242;SDS011;11719;51.052;6.982;2023-06-26T00:18:39;4.13;;;2.58;;
16242;SDS011;11719;51.052;6.982;2023-06-26T00:21:04;3.33;;;2.37;;
16242;SDS011;11719;51.052;6.982;2023-06-26T00:23:30;3.45;;;2.65;;
16242;SDS011;11719;51.052;6.982;2023-06-26T00:25:57;4.68;;;2.97;;
16242;SDS011;11719;51.052;6.982;2023-06-26T00:28:23;3.00;;;2.38;;
16242;SDS011;11719;51.052;6.982;2023-06-26T00:30:49;3.23;;;2.60;;
16242;SDS011;11719;51.052;6.982;2023-06-26T00:33:15;3.30;;;2.43;;
16242;SDS011;11719;51.052;6.982;2023-06-26T00:35:41;3.07;;;2.77;;
16242;SDS011;11719;51.052;6.982;2023-06-26T00:38:07;3.55;;;2.47;;
16242;SDS011;11719;51.052;6.982;2023-06-26T00:40:33;2.47;;;2.05;;
16242;SDS011;11719;51.052;6.982;2023-06-26T00:42:58;3.25;;;2.63;;
16242;SDS011;11719;51.052;6.982;2023-06-26T00:45:24;4.20;;;2.50;;
16242;SDS011;11719;51.052;6.982;2023-06-26T00:47:50;4.30;;;2.75;;
16242;SDS011;11719;51.052;6.982;2023-06-26T00:50:15;3.72;;;2.40;;
16242;SDS011;11719;51.052;6.982;2023-06-26T00:52:42;3.30;;;2.80;;
16242;SDS011;11719;51.052;6.982;2023-06-26T00:55:08;2.97;;;2.42;;
16242;SDS011;11719;51.052;6.982;2023-06-26T00:57:34;4.35;;;2.33;;
16242;SDS011;11719;51.052;6.982;2023-06-26T01:00:01;3.88;;;2.58;;
16242;SDS011;11719;51.052;6.982;2023-06-26T01:02:29;3.33;;;2.35;;
16242;SDS011;11719;51.052;6.982;2023-06-26T01:04:59;5.00;;;3.53;;
16242;SDS011;11719;51.052;6.982;2023-06-26T01:07:31;3.70;;;2.58;;
16242;SDS011;11719;51.052;6.982;2023-06-26T01:10:01;6.25;;;3.97;;
16242;SDS011;11719;51.052;6.982;2023-06-26T01:12:29;4.25;;;3.75;;
16242;SDS011;11719;51.052;6.982;2023-06-26T01:14:57;5.97;;;4.00;;
16242;SDS011;11719;51.052;6.982;2023-06-26T01:17:24;4.77;;;3.60;;
16242;SDS011;11719;51.052;6.982;2023-06-26T01:19:56;5.07;;;3.63;;
16242;SDS011;11719;51.052;6.982;2023-06-26T01:22:34;3.73;;;2.90;;
16242;SDS011;11719;51.052;6.982;2023-06-26T01:28:45;4.20;;;2.92;;
16242;SDS011;11719;51.052;6.982;2023-06-26T01:31:11;3.80;;;2.97;;
16242;SDS011;11719;51.052;6.982;2023-06-26T01:33:38;3.80;;;2.70;;
16242;SDS011;11719;51.052;6.982;2023-06-26T01:36:06;3.75;;;2.97;;
16242;SDS011;11719;51.052;6.982;2023-06-26T01:38:32;5.53;;;2.83;;
16242;SDS011;11719;51.052;6.982;2023-06-26T01:40:59;4.77;;;3.57;;
16242;SDS011;11719;51.052;6.982;2023-06-26T01:43:41;3.67;;;3.00;;
16242;SDS011;11719;51.052;6.982;2023-06-26T01:46:36;2.80;;;2.10;;
16242;SDS011;11719;51.052;6.982;2023-06-26T01:49:09;2.97;;;2.33;;
16242;SDS011;11719;51.052;6.982;2023-06-26T01:52:46;3.65;;;2.90;;
16242;SDS011;11719;51.052;6.982;2023-06-26T01:58:14;3.95;;;3.17;;
16242;SDS011;11719;51.052;6.982;2023-06-26T02:00:42;3.77;;;2.93;;
16242;SDS011;11719;51.052;6.982;2023-06-26T02:03:08;4.07;;;3.15;;
16242;SDS011;11719;51.052;6.982;2023-06-26T02:05:35;3.38;;;2.22;;
16242;SDS011;11719;51.052;6.982;2023-06-26T02:08:01;5.68;;;3.95;;
16242;SDS011;11719;51.052;6.982;2023-06-26T02:10:28;4.68;;;3.55;;
16242;SDS011;11719;51.052;6.982;2023-06-26T02:12:53;4.60;;;3.73;;
16242;SDS011;11719;51.052;6.982;2023-06-26T02:15:19;3.47;;;2.67;;
16242;SDS011;11719;51.052;6.982;2023-06-26T02:17:45;3.77;;;3.07;;
16242;SDS011;11719;51.052;6.982;2023-06-26T02:20:13;4.83;;;3.77;;
16242;SDS011;11719;51.052;6.982;2023-06-26T02:22:40;2.63;;;2.37;;
16242;SDS011;11719;51.052;6.982;2023-06-26T02:25:07;3.13;;;2.47;;
16242;SDS011;11719;51.052;6.982;2023-06-26T02:27:37;5.10;;;3.50;;
16242;SDS011;11719;51.052;6.982;2023-06-26T02:30:04;4.93;;;3.53;;
16242;SDS011;11719;51.052;6.982;2023-06-26T02:32:30;3.70;;;2.83;;
16242;SDS011;11719;51.052;6.982;2023-06-26T02:34:56;3.88;;;3.33;;
16242;SDS011;11719;51.052;6.982;2023-06-26T02:37:22;5.83;;;3.30;;
16242;SDS011;11719;51.052;6.982;2023-06-26T02:39:47;4.80;;;3.87;;
16242;SDS011;11719;51.052;6.982;2023-06-26T02:42:13;3.77;;;3.20;;
16242;SDS011;11719;51.052;6.982;2023-06-26T02:44:39;3.23;;;2.73;;
16242;SDS011;11719;51.052;6.982;2023-06-26T02:47:06;3.40;;;2.60;;
16242;SDS011;11719;51.052;6.982;2023-06-26T02:49:31;3.25;;;2.60;;
16242;SDS011;11719;51.052;6.982;2023-06-26T02:51:57;2.40;;;2.20;;
16242;SDS011;11719;51.052;6.982;2023-06-26T02:54:23;3.88;;;2.85;;
16242;SDS011;11719;51.052;6.982;2023-06-26T02:56:48;6.15;;;3.58;;
16242;SDS011;11719;51.052;6.982;2023-06-26T02:59:14;4.97;;;4.00;;
16242;SDS011;11719;51.052;6.982;2023-06-26T03:01:40;3.47;;;2.80;;
16242;SDS011;11719;51.052;6.982;2023-06-26T03:04:06;5.82;;;3.90;;
16242;SDS011;11719;51.052;6.982;2023-06-26T03:06:32;3.90;;;2.70;;
16242;SDS011;11719;51.052;6.982;2023-06-26T03:08:57;3.17;;;2.30;;
16242;SDS011;11719;51.052;6.982;2023-06-26T03:11:23;3.30;;;2.43;;
16242;SDS011;11719;51.052;6.982;2023-06-26T03:13:49;5.65;;;3.60;;
16242;SDS011;11719;51.052;6.982;2023-06-26T03:16:15;4.07;;;2.70;;
16242;SDS011;11719;51.052;6.982;2023-06-26T03:18:40;5.73;;;3.50;;
16242;SDS011;11719;51.052;6.982;2023-06-26T03:21:06;4.80;;;3.37;;
16242;SDS011;11719;51.052;6.982;2023-06-26T03:23:34;4.57;;;3.60;;
16242;SDS011;11719;51.052;6.982;2023-06-26T03:25:59;3.85;;;2.85;;
16242;SDS011;11719;51.052;6.982;2023-06-26T03:28:25;5.77;;;3.27;;
16242;SDS011;11719;51.052;6.982;2023-06-26T03:30:51;4.00;;;3.50;;
16242;SDS011;11719;51.052;6.982;2023-06-26T03:33:17;2.27;;;2.07;;
16242;SDS011;11719;51.052;6.982;2023-06-26T03:35:43;6.27;;;4.00;;
16242;SDS011;11719;51.052;6.982;2023-06-26T03:38:09;4.93;;;3.97;;
16242;SDS011;11719;51.052;6.982;2023-06-26T03:40:35;6.03;;;3.63;;
16242;SDS011;11719;51.052;6.982;2023-06-26T03:43:02;6.07;;;3.50;;
16242;SDS011;11719;51.052;6.982;2023-06-26T03:45:28;5.07;;;3.50;;
16242;SDS011;11719;51.052;6.982;2023-06-26T03:47:54;8.20;;;3.20;;
16242;SDS011;11719;51.052;6.982;2023-06-26T03:50:20;5.60;;;3.53;;
16242;SDS011;11719;51.052;6.982;2023-06-26T03:52:45;5.00;;;3.45;;
16242;SDS011;11719;51.052;6.982;2023-06-26T03:55:11;3.43;;;2.97;;
16242;SDS011;11719;51.052;6.982;2023-06-26T03:57:37;3.83;;;2.90;;
16242;SDS011;11719;51.052;6.982;2023-06-26T04:00:03;5.10;;;3.23;;
16242;SDS011;11719;51.052;6.982;2023-06-26T04:02:34;6.57;;;3.37;;
16242;SDS011;11719;51.052;6.982;2023-06-26T04:05:00;7.30;;;3.63;;
16242;SDS011;11719;51.052;6.982;2023-06-26T04:07:28;3.90;;;2.90;;
16242;SDS011;11719;51.052;6.982;2023-06-26T04:09:54;4.97;;;2.70;;
16242;SDS011;11719;51.052;6.982;2023-06-26T04:12:20;3.50;;;3.07;;
16242;SDS011;11719;51.052;6.982;2023-06-26T04:14:46;4.60;;;3.13;;
16242;SDS011;11719;51.052;6.982;2023-06-26T04:17:12;5.67;;;3.57;;
16242;SDS011;11719;51.052;6.982;2023-06-26T04:19:38;5.83;;;3.20;;
16242;SDS011;11719;51.052;6.982;2023-06-26T04:22:03;4.33;;;3.00;;
16242;SDS011;11719;51.052;6.982;2023-06-26T04:24:29;4.63;;;3.20;;
16242;SDS011;11719;51.052;6.982;2023-06-26T04:26:55;4.55;;;3.05;;
16242;SDS011;11719;51.052;6.982;2023-06-26T04:29:25;3.77;;;2.90;;
16242;SDS011;11719;51.052;6.982;2023-06-26T04:31:52;4.20;;;2.83;;
16242;SDS011;11719;51.052;6.982;2023-06-26T04:34:22;4.10;;;2.72;;
16242;SDS011;11719;51.052;6.982;2023-06-26T04:36:52;3.95;;;2.60;;
16242;SDS011;11719;51.052;6.982;2023-06-26T04:39:19;4.63;;;2.87;;
16242;SDS011;11719;51.052;6.982;2023-06-26T04:41:44;4.33;;;3.13;;
16242;SDS011;11719;51.052;6.982;2023-06-26T04:44:11;3.20;;;2.47;;
16242;SDS011;11719;51.052;6.982;2023-06-26T04:46:37;4.72;;;2.92;;
16242;SDS011;11719;51.052;6.982;2023-06-26T04:49:09;5.07;;;3.47;;
16242;SDS011;11719;51.052;6.982;2023-06-26T04:51:35;6.97;;;2.73;;
16242;SDS011;11719;51.052;6.982;2023-06-26T04:54:08;4.03;;;2.53;;
16242;SDS011;11719;51.052;6.982;2023-06-26T04:56:37;3.27;;;2.70;;
16242;SDS011;11719;51.052;6.982;2023-06-26T04:59:07;5.53;;;3.10;;
16242;SDS011;11719;51.052;6.982;2023-06-26T05:01:37;3.58;;;2.60;;
16242;SDS011;11719;51.052;6.982;2023-06-26T05:04:04;4.70;;;2.90;;
16242;SDS011;11719;51.052;6.982;2023-06-26T05:06:31;5.63;;;2.53;;
16242;SDS011;11719;51.052;6.982;2023-06-26T05:08:56;4.63;;;2.87;;
16242;SDS011;11719;51.052;6.982;2023-06-26T05:11:23;6.60;;;2.20;;
16242;SDS011;11719;51.052;6.982;2023-06-26T05:13:50;7.67;;;2.77;;
16242;SDS011;11719;51.052;6.982;2023-06-26T05:16:16;3.75;;;2.53;;
16242;SDS011;11719;51.052;6.982;2023-06-26T05:18:41;4.07;;;2.60;;
16242;SDS011;11719;51.052;6.982;2023-06-26T05:21:07;4.15;;;2.25;;
16242;SDS011;11719;51.052;6.982;2023-06-26T05:23:33;10.47;;;3.20;;
16242;SDS011;11719;51.052;6.982;2023-06-26T05:26:00;3.63;;;2.50;;
16242;SDS011;11719;51.052;6.982;2023-06-26T05:28:28;3.58;;;2.55;;
16242;SDS011;11719;51.052;6.982;2023-06-26T05:30:56;4.80;;;2.93;;
16242;SDS011;11719;51.052;6.982;2023-06-26T05:33:23;3.38;;;2.10;;
16242;SDS011;11719;51.052;6.982;2023-06-26T05:35:51;5.40;;;2.85;;
16242;SDS011;11719;51.052;6.982;2023-06-26T05:38:20;3.23;;;2.37;;
16242;SDS011;11719;51.052;6.982;2023-06-26T05:40:46;3.00;;;2.10;;
16242;SDS011;11719;51.052;6.982;2023-06-26T05:43:12;3.77;;;2.43;;
16242;SDS011;11719;51.052;6.982;2023-06-26T05:45:39;4.67;;;2.53;;
16242;SDS011;11719;51.052;6.982;2023-06-26T05:48:05;3.83;;;2.33;;
16242;SDS011;11719;51.052;6.982;2023-06-26T05:50:31;3.35;;;2.15;;
16242;SDS011;11719;51.052;6.982;2023-06-26T05:52:57;4.23;;;2.40;;
16242;SDS011;11719;51.052;6.982;2023-06-26T05:55:24;4.43;;;2.30;;
16242;SDS011;11719;51.052;6.982;2023-06-26T05:57:50;2.67;;;1.80;;
16242;SDS011;11719;51.052;6.982;2023-06-26T06:00:17;2.13;;;1.87;;
16242;SDS011;11719;51.052;6.982;2023-06-26T06:02:44;4.07;;;2.50;;
16242;SDS011;11719;51.052;6.982;2023-06-26T06:05:10;3.00;;;2.30;;
16242;SDS011;11719;51.052;6.982;2023-06-26T06:07:36;3.17;;;1.90;;
16242;SDS011;11719;51.052;6.982;2023-06-26T06:10:02;2.33;;;1.87;;
16242;SDS011;11719;51.052;6.982;2023-06-26T06:12:29;3.63;;;1.77;;
16242;SDS011;11719;51.052;6.982;2023-06-26T06:14:55;4.13;;;2.30;;
16242;SDS011;11719;51.052;6.982;2023-06-26T06:17:21;2.83;;;1.70;;
16242;SDS011;11719;51.052;6.982;2023-06-26T06:19:47;5.23;;;1.90;;
16242;SDS011;11719;51.052;6.982;2023-06-26T06:22:13;3.30;;;2.38;;
16242;SDS011;11719;51.052;6.982;2023-06-26T06:24:39;4.13;;;2.07;;
16242;SDS011;11719;51.052;6.982;2023-06-26T06:27:05;3.47;;;2.10;;
16242;SDS011;11719;51.052;6.982;2023-06-26T06:29:30;4.97;;;2.03;;
16242;SDS011;11719;51.052;6.982;2023-06-26T06:31:56;3.97;;;2.03;;
16242;SDS011;11719;51.052;6.982;2023-06-26T06:34:22;3.43;;;2.10;;
16242;SDS011;11719;51.052;6.982;2023-06-26T06:36:48;3.85;;;2.28;;
16242;SDS011;11719;51.052;6.982;2023-06-26T06:39:15;3.50;;;1.87;;
16242;SDS011;11719;51.052;6.982;2023-06-26T06:41:41;3.37;;;2.10;;
16242;SDS011;11719;51.052;6.982;2023-06-26T06:44:07;3.37;;;1.77;;
16242;SDS011;11719;51.052;6.982;2023-06-26T06:46:33;4.03;;;2.33;;
16242;SDS011;11719;51.052;6.982;2023-06-26T06:48:59;3.43;;;2.33;;
16242;SDS011;11719;51.052;6.982;2023-06-26T06:51:25;4.03;;;2.20;;
16242;SDS011;11719;51.052;6.982;2023-06-26T06:53:51;3.37;;;1.90;;
16242;SDS011;11719;51.052;6.982;2023-06-26T06:56:16;3.17;;;2.30;;
16242;SDS011;11719;51.052;6.982;2023-06-26T06:58:42;5.07;;;2.07;;
16242;SDS011;11719;51.052;6.982;2023-06-26T07:01:11;3.50;;;2.03;;
16242;SDS011;11719;51.052;6.982;2023-06-26T07:03:38;4.13;;;2.30;;
16242;SDS011;11719;51.052;6.982;2023-06-26T07:06:04;3.87;;;1.90;;
16242;SDS011;11719;51.052;6.982;2023-06-26T07:08:30;5.03;;;2.57;;
16242;SDS011;11719;51.052;6.982;2023-06-26T07:10:56;4.00;;;2.37;;
16242;SDS011;11719;51.052;6.982;2023-06-26T07:13:22;4.23;;;2.00;;
16242;SDS011;11719;51.052;6.982;2023-06-26T07:15:48;4.47;;;1.83;;
16242;SDS011;11719;51.052;6.982;2023-06-26T07:18:14;5.87;;;2.07;;
16242;SDS011;11719;51.052;6.982;2023-06-26T07:20:40;4.87;;;2.10;;
16242;SDS011;11719;51.052;6.982;2023-06-26T07:23:07;5.03;;;2.00;;
16242;SDS011;11719;51.052;6.982;2023-06-26T07:25:33;3.50;;;2.00;;
16242;SDS011;11719;51.052;6.982;2023-06-26T07:27:59;4.83;;;2.33;;
16242;SDS011;11719;51.052;6.982;2023-06-26T07:30:25;4.03;;;2.40;;
16242;SDS011;11719;51.052;6.982;2023-06-26T07:32:51;3.90;;;2.20;;
16242;SDS011;11719;51.052;6.982;2023-06-26T07:35:16;3.20;;;2.20;;
16242;SDS011;11719;51.052;6.982;2023-06-26T07:37:42;3.47;;;1.97;;
16242;SDS011;11719;51.052;6.982;2023-06-26T07:40:09;2.87;;;2.07;;
16242;SDS011;11719;51.052;6.982;2023-06-26T07:42:35;4.33;;;2.40;;
16242;SDS011;11719;51.052;6.982;2023-06-26T07:45:01;4.23;;;2.57;;
16242;SDS011;11719;51.052;6.982;2023-06-26T07:47:34;4.83;;;2.43;;
16242;SDS011;11719;51.052;6.982;2023-06-26T07:50:01;3.55;;;2.35;;
16242;SDS011;11719;51.052;6.982;2023-06-26T07:52:27;5.43;;;2.38;;
16242;SDS011;11719;51.052;6.982;2023-06-26T07:54:57;4.57;;;2.27;;
16242;SDS011;11719;51.052;6.982;2023-06-26T07:57:23;7.30;;;2.80;;
16242;SDS011;11719;51.052;6.982;2023-06-26T07:59:49;8.17;;;2.40;;
16242;SDS011;11719;51.052;6.982;2023-06-26T08:02:15;2.70;;;1.80;;
16242;SDS011;11719;51.052;6.982;2023-06-26T08:04:43;4.27;;;2.20;;
16242;SDS011;11719;51.052;6.982;2023-06-26T08:07:09;5.13;;;2.47;;
16242;SDS011;11719;51.052;6.982;2023-06-26T08:09:35;6.17;;;2.57;;
16242;SDS011;11719;51.052;6.982;2023-06-26T08:12:01;5.32;;;2.30;;
16242;SDS011;11719;51.052;6.982;2023-06-26T08:14:27;5.10;;;2.20;;
16242;SDS011;11719;51.052;6.982;2023-06-26T08:16:53;5.40;;;2.70;;
16242;SDS011;11719;51.052;6.982;2023-06-26T08:19:18;2.80;;;2.20;;
16242;SDS011;11719;51.052;6.982;2023-06-26T08:21:45;5.72;;;2.80;;
16242;SDS011;11719;51.052;6.982;2023-06-26T08:24:11;3.83;;;2.60;;
16242;SDS011;11719;51.052;6.982;2023-06-26T08:26:47;3.90;;;1.80;;
16242;SDS011;11719;51.052;6.982;2023-06-26T08:29:13;4.93;;;2.10;;
16242;SDS011;11719;51.052;6.982;2023-06-26T08:31:40;3.75;;;2.08;;
16242;SDS011;11719;51.052;6.982;2023-06-26T08:34:07;4.18;;;2.05;;
16242;SDS011;11719;51.052;6.982;2023-06-26T08:36:33;4.00;;;1.73;;
16242;SDS011;11719;51.052;6.982;2023-06-26T08:38:59;3.60;;;2.70;;
16242;SDS011;11719;51.052;6.982;2023-06-26T08:41:25;5.47;;;2.35;;
16242;SDS011;11719;51.052;6.982;2023-06-26T08:43:51;4.77;;;3.00;;
16242;SDS011;11719;51.052;6.982;2023-06-26T08:46:17;4.97;;;1.90;;
16242;SDS011;11719;51.052;6.982;2023-06-26T08:48:56;3.90;;;2.63;;
16242;SDS011;11719;51.052;6.982;2023-06-26T08:51:27;6.97;;;2.92;;
16242;SDS011;11719;51.052;6.982;2023-06-26T08:54:00;5.68;;;2.67;;
16242;SDS011;11719;51.052;6.982;2023-06-26T08:56:28;3.50;;;1.92;;
16242;SDS011;11719;51.052;6.982;2023-06-26T08:59:01;4.25;;;2.42;;
16242;SDS011;11719;51.052;6.982;2023-06-26T09:01:27;3.30;;;2.28;;
16242;SDS011;11719;51.052;6.982;2023-06-26T09:03:53;4.03;;;2.30;;
16242;SDS011;11719;51.052;6.982;2023-06-26T09:06:19;3.78;;;2.50;;
16242;SDS011;11719;51.052;6.982;2023-06-26T09:08:45;7.68;;;2.47;;
16242;SDS011;11719;51.052;6.982;2023-06-26T09:11:11;5.78;;;2.28;;
16242;SDS011;11719;51.052;6.982;2023-06-26T09:13:37;2.92;;;2.00;;
16242;SDS011;11719;51.052;6.982;2023-06-26T09:16:05;4.90;;;2.30;;
16242;SDS011;11719;51.052;6.982;2023-06-26T09:18:33;2.42;;;1.98;;
16242;SDS011;11719;51.052;6.982;2023-06-26T09:20:59;3.05;;;2.72;;
16242;SDS011;11719;51.052;6.982;2023-06-26T09:23:25;7.65;;;2.20;;
16242;SDS011;11719;51.052;6.982;2023-06-26T09:25:52;5.22;;;2.28;;
16242;SDS011;11719;51.052;6.982;2023-06-26T09:28:18;5.13;;;2.55;;
16242;SDS011;11719;51.052;6.982;2023-06-26T09:30:44;5.25;;;2.60;;
16242;SDS011;11719;51.052;6.982;2023-06-26T09:33:16;4.38;;;2.30;;
16242;SDS011;11719;51.052;6.982;2023-06-26T09:35:44;3.92;;;2.10;;
16242;SDS011;11719;51.052;6.982;2023-06-26T09:38:13;2.78;;;2.17;;
16242;SDS011;11719;51.052;6.982;2023-06-26T09:40:42;4.78;;;2.55;;
16242;SDS011;11719;51.052;6.982;2023-06-26T09:43:09;5.70;;;2.60;;
16242;SDS011;11719;51.052;6.982;2023-06-26T09:45:39;2.60;;;1.98;;
16242;SDS011;11719;51.052;6.982;2023-06-26T09:48:06;4.65;;;2.42;;
16242;SDS011;11719;51.052;6.982;2023-06-26T09:50:36;4.35;;;2.30;;
16242;SDS011;11719;51.052;6.982;2023-06-26T09:53:12;2.78;;;2.08;;
16242;SDS011;11719;51.052;6.982;2023-06-26T09:55:39;5.72;;;1.98;;
16242;SDS011;11719;51.052;6.982;2023-06-26T09:58:08;7.97;;;3.65;;
16242;SDS011;11719;51.052;6.982;2023-06-26T10:00:39;4.03;;;2.08;;
16242;SDS011;11719;51.052;6.982;2023-06-26T10:03:07;5.25;;;1.95;;
16242;SDS011;11719;51.052;6.982;2023-06-26T10:05:33;5.72;;;2.08;;
16242;SDS011;11719;51.052;6.982;2023-06-26T10:08:00;5.05;;;2.10;;
16242;SDS011;11719;51.052;6.982;2023-06-26T10:10:27;6.25;;;2.03;;
16242;SDS011;11719;51.052;6.982;2023-06-26T10:12:58;3.15;;;1.90;;
16242;SDS011;11719;51.052;6.982;2023-06-26T10:15:28;4.55;;;2.10;;
16242;SDS011;11719;51.052;6.982;2023-06-26T10:17:55;2.95;;;1.85;;
16242;SDS011;11719;51.052;6.982;2023-06-26T10:20:22;5.15;;;1.95;;
16242;SDS011;11719;51.052;6.982;2023-06-26T10:22:50;4.30;;;1.67;;
16242;SDS011;11719;51.052;6.982;2023-06-26T10:25:18;3.72;;;1.67;;
16242;SDS011;11719;51.052;6.982;2023-06-26T10:27:45;2.53;;;1.48;;
16242;SDS011;11719;51.052;6.982;2023-06-26T10:30:17;4.25;;;1.90;;
16242;SDS011;11719;51.052;6.982;2023-06-26T10:32:57;2.50;;;1.90;;
16242;SDS011;11719;51.052;6.982;2023-06-26T10:35:25;2.83;;;1.77;;
16242;SDS011;11719;51.052;6.982;2023-06-26T10:37:52;2.05;;;1.85;;
16242;SDS011;11719;51.052;6.982;2023-06-26T10:40:27;2.42;;;1.85;;
16242;SDS011;11719;51.052;6.982;2023-06-26T10:43:06;3.60;;;1.70;;
16242;SDS011;11719;51.052;6.982;2023-06-26T10:45:33;1.73;;;1.63;;
16242;SDS011;11719;51.052;6.982;2023-06-26T10:48:01;3.55;;;1.85;;
16242;SDS011;11719;51.052;6.982;2023-06-26T10:50:27;2.50;;;1.95;;
16242;SDS011;11719;51.052;6.982;2023-06-26T10:55:49;2.70;;;1.73;;
16242;SDS011;11719;51.052;6.982;2023-06-26T11:03:44;4.82;;;2.25;;
16242;SDS011;11719;51.052;6.982;2023-06-26T11:06:27;2.95;;;1.60;;
16242;SDS011;11719;51.052;6.982;2023-06-26T11:08:54;4.00;;;1.92;;
16242;SDS011;11719;51.052;6.982;2023-06-26T11:14:24;4.38;;;1.77;;
16242;SDS011;11719;51.052;6.982;2023-06-26T11:16:56;3.72;;;1.40;;
16242;SDS011;11719;51.052;6.982;2023-06-26T11:19:23;1.75;;;1.65;;
16242;SDS011;11719;51.052;6.982;2023-06-26T11:21:54;2.40;;;1.50;;
16242;SDS011;11719;51.052;6.982;2023-06-26T11:24:25;4.43;;;1.42;;
16242;SDS011;11719;51.052;6.982;2023-06-26T11:26:51;2.15;;;1.27;;
16242;SDS011;11719;51.052;6.982;2023-06-26T11:29:21;2.75;;;1.30;;
16242;SDS011;11719;51.052;6.982;2023-06-26T11:31:48;6.00;;;1.80;;
16242;SDS011;11719;51.052;6.982;2023-06-26T11:34:28;1.38;;;1.27;;
16242;SDS011;11719;51.052;6.982;2023-06-26T11:36:56;1.55;;;1.08;;
16242;SDS011;11719;51.052;6.982;2023-06-26T11:39:22;2.03;;;1.73;;
16242;SDS011;11719;51.052;6.982;2023-06-26T11:41:48;1.65;;;0.98;;
16242;SDS011;11719;51.052;6.982;2023-06-26T11:44:14;2.85;;;1.02;;
16242;SDS011;11719;51.052;6.982;2023-06-26T11:46:45;1.30;;;1.20;;
16242;SDS011;11719;51.052;6.982;2023-06-26T11:49:11;1.23;;;0.90;;
16242;SDS011;11719;51.052;6.982;2023-06-26T11:51:36;1.83;;;1.00;;
16242;SDS011;11719;51.052;6.982;2023-06-26T11:54:03;2.60;;;1.33;;
16242;SDS011;11719;51.052;6.982;2023-06-26T11:56:29;3.80;;;0.88;;
16242;SDS011;11719;51.052;6.982;2023-06-26T12:01:37;2.92;;;1.45;;
16242;SDS011;11719;51.052;6.982;2023-06-26T12:04:10;0.70;;;0.70;;
16242;SDS011;11719;51.052;6.982;2023-06-26T12:06:39;1.45;;;1.10;;
16242;SDS011;11719;51.052;6.982;2023-06-26T12:09:08;1.35;;;0.68;;
16242;SDS011;11719;51.052;6.982;2023-06-26T12:11:39;2.22;;;1.10;;
16242;SDS011;11719;51.052;6.982;2023-06-26T12:14:08;1.67;;;0.95;;
16242;SDS011;11719;51.052;6.982;2023-06-26T12:16:36;2.83;;;0.60;;
16242;SDS011;11719;51.052;6.982;2023-06-26T12:19:05;3.97;;;1.00;;
16242;SDS011;11719;51.052;6.982;2023-06-26T12:24:15;2.17;;;1.05;;
16242;SDS011;11719;51.052;6.982;2023-06-26T12:26:48;2.15;;;1.25;;
16242;SDS011;11719;51.052;6.982;2023-06-26T12:29:31;1.25;;;0.90;;
16242;SDS011;11719;51.052;6.982;2023-06-26T12:31:58;1.50;;;1.05;;
16242;SDS011;11719;51.052;6.982;2023-06-26T12:34:29;1.70;;;0.80;;
16242;SDS011;11719;51.052;6.982;2023-06-26T12:37:02;2.50;;;1.17;;
16242;SDS011;11719;51.052;6.982;2023-06-26T12:42:23;2.83;;;0.88;;
16242;SDS011;11719;51.052;6.982;2023-06-26T12:44:51;1.10;;;1.00;;
16242;SDS011;11719;51.052;6.982;2023-06-26T12:47:24;3.15;;;1.00;;
16242;SDS011;11719;51.052;6.982;2023-06-26T12:49:56;1.67;;;0.90;;
16242;SDS011;11719;51.052;6.982;2023-06-26T12:52:22;1.08;;;0.93;;
16242;SDS011;11719;51.052;6.982;2023-06-26T12:54:52;2.75;;;0.93;;
16242;SDS011;11719;51.052;6.982;2023-06-26T12:57:19;3.25;;;0.90;;
16242;SDS011;11719;51.052;6.982;2023-06-26T12:59:45;3.70;;;0.70;;
16242;SDS011;11719;51.052;6.982;2023-06-26T13:02:11;1.08;;;0.82;;
16242;SDS011;11719;51.052;6.982;2023-06-26T13:04:37;0.98;;;0.50;;
16242;SDS011;11719;51.052;6.982;2023-06-26T13:07:06;2.00;;;0.90;;
16242;SDS011;11719;51.052;6.982;2023-06-26T13:09:33;1.00;;;0.47;;
16242;SDS011;11719;51.052;6.982;2023-06-26T13:12:00;1.13;;;0.43;;
16242;SDS011;11719;51.052;6.982;2023-06-26T13:14:28;2.17;;;0.52;;
16242;SDS011;11719;51.052;6.982;2023-06-26T13:16:55;0.73;;;0.47;;
16242;SDS011;11719;51.052;6.982;2023-06-26T13:19:21;0.93;;;0.60;;
16242;SDS011;11719;51.052;6.982;2023-06-26T13:21:47;0.47;;;0.45;;
16242;SDS011;11719;51.052;6.982;2023-06-26T13:24:12;0.70;;;0.47;;
16242;SDS011;11719;51.052;6.982;2023-06-26T13:26:38;3.15;;;0.63;;
16242;SDS011;11719;51.052;6.982;2023-06-26T13:29:04;0.60;;;0.52;;
16242;SDS011;11719;51.052;6.982;2023-06-26T13:31:31;0.82;;;0.77;;
16242;SDS011;11719;51.052;6.982;2023-06-26T13:34:00;1.52;;;0.70;;
16242;SDS011;11719;51.052;6.982;2023-06-26T13:36:28;1.38;;;0.68;;
16242;SDS011;11719;51.052;6.982;2023-06-26T13:38:54;1.05;;;0.60;;
16242;SDS011;11719;51.052;6.982;2023-06-26T13:41:23;0.65;;;0.43;;
16242;SDS011;11719;51.052;6.982;2023-06-26T13:43:50;1.83;;;0.60;;
16242;SDS011;11719;51.052;6.982;2023-06-26T13:46:17;4.53;;;0.77;;
16242;SDS011;11719;51.052;6.982;2023-06-26T13:48:43;1.92;;;0.80;;
16242;SDS011;11719;51.052;6.982;2023-06-26T13:51:10;1.65;;;0.50;;
16242;SDS011;11719;51.052;6.982;2023-06-26T13:53:36;0.77;;;0.50;;
16242;SDS011;11719;51.052;6.982;2023-06-26T13:56:02;0.63;;;0.40;;
16242;SDS011;11719;51.052;6.982;2023-06-26T13:58:28;0.60;;;0.30;;
16242;SDS011;11719;51.052;6.982;2023-06-26T14:00:57;0.52;;;0.35;;
16242;SDS011;11719;51.052;6.982;2023-06-26T14:03:23;1.55;;;0.45;;
16242;SDS011;11719;51.052;6.982;2023-06-26T14:05:51;1.05;;;0.38;;
16242;SDS011;11719;51.052;6.982;2023-06-26T14:08:16;1.65;;;0.50;;
16242;SDS011;11719;51.052;6.982;2023-06-26T14:10:42;1.08;;;0.63;;
16242;SDS011;11719;51.052;6.982;2023-06-26T14:13:08;1.70;;;0.85;;
16242;SDS011;11719;51.052;6.982;2023-06-26T14:15:34;1.05;;;0.60;;
16242;SDS011;11719;51.052;6.982;2023-06-26T14:18:00;1.55;;;0.38;;
16242;SDS011;11719;51.052;6.982;2023-06-26T14:20:27;0.30;;;0.30;;
16242;SDS011;11719;51.052;6.982;2023-06-26T14:22:53;3.42;;;0.73;;
16242;SDS011;11719;51.052;6.982;2023-06-26T14:25:19;1.00;;;0.63;;
16242;SDS011;11719;51.052;6.982;2023-06-26T14:27:45;0.63;;;0.47;;
16242;SDS011;11719;51.052;6.982;2023-06-26T14:30:11;2.35;;;0.50;;
16242;SDS011;11719;51.052;6.982;2023-06-26T14:32:37;1.42;;;0.65;;
16242;SDS011;11719;51.052;6.982;2023-06-26T14:35:03;0.98;;;0.40;;
16242;SDS011;11719;51.052;6.982;2023-06-26T14:37:30;1.25;;;0.65;;
16242;SDS011;11719;51.052;6.982;2023-06-26T14:39:57;1.50;;;0.80;;
16242;SDS011;11719;51.052;6.982;2023-06-26T14:42:23;1.15;;;0.40;;
16242;SDS011;11719;51.052;6.982;2023-06-26T14:44:50;1.35;;;0.50;;
16242;SDS011;11719;51.052;6.982;2023-06-26T14:47:16;1.95;;;0.50;;
16242;SDS011;11719;51.052;6.982;2023-06-26T14:49:42;0.40;;;0.40;;
16242;SDS011;11719;51.052;6.982;2023-06-26T14:52:08;2.00;;;0.70;;
16242;SDS011;11719;51.052;6.982;2023-06-26T14:54:34;1.15;;;0.40;;
16242;SDS011;11719;51.052;6.982;2023-06-26T14:57:04;0.90;;;0.68;;
16242;SDS011;11719;51.052;6.982;2023-06-26T14:59:31;2.40;;;0.63;;
16242;SDS011;11719;51.052;6.982;2023-06-26T15:01:57;1.92;;;0.70;;
16242;SDS011;11719;51.052;6.982;2023-06-26T15:04:23;0.90;;;0.60;;
16242;SDS011;11719;51.052;6.982;2023-06-26T15:06:48;2.05;;;0.57;;
16242;SDS011;11719;51.052;6.982;2023-06-26T15:09:14;1.00;;;0.55;;
16242;SDS011;11719;51.052;6.982;2023-06-26T15:11:40;1.85;;;0.70;;
16242;SDS011;11719;51.052;6.982;2023-06-26T15:14:06;1.27;;;0.60;;
16242;SDS011;11719;51.052;6.982;2023-06-26T15:16:32;3.45;;;0.43;;